Time;durP1;ratioP1;P1;durP2;ratioP2;P2;SDS_P1;SDS_P2;PMS_P1;PMS_P2;Temp;Humidity;BMP_temperature;BMP_pressure;BME280_temperature;BME280_humidity;BME280_pressure;Samples;Min_cycle;Max_cycle;Signal;HPM_P1;HPM_P2
2022/03/13 00:06:56;;;;;;;14.68;8.05;;;;;;;20.55;38.16;101566.81;20638162;28;97425;-77
2022/03/13 00:16:57;;;;;;;12.63;8.13;;;;;;;20.53;38.37;101565.22;20641969;27;98092;-77
2022/03/13 00:27:00;;;;;;;14.70;8.52;;;;;;;20.49;38.62;101561.91;20628261;28;97402;-77
2022/03/13 00:37:00;;;;;;;15.60;8.57;;;;;;;20.46;38.53;101567.34;20621934;27;98121;-77
2022/03/13 00:47:01;;;;;;;12.10;8.15;;;;;;;20.45;38.39;101568.28;20638772;28;100615;-76
2022/03/13 00:57:02;;;;;;;14.27;9.20;;;;;;;20.38;38.21;101562.50;20633859;28;100804;-75
2022/03/13 01:07:03;;;;;;;15.40;9.25;;;;;;;20.39;38.24;101555.47;20655766;27;99244;-76
2022/03/13 01:17:08;;;;;;;14.77;9.35;;;;;;;20.33;38.56;101545.31;20656831;27;97538;-76
2022/03/13 01:27:11;;;;;;;13.82;9.60;;;;;;;20.29;38.49;101540.19;20648165;28;96935;-76
2022/03/13 01:37:30;;;;;;;17.47;9.63;;;;;;;20.29;38.51;101542.00;20647395;28;98056;-76
2022/03/13 01:47:30;;;;;;;14.35;9.50;;;;;;;20.22;38.17;101525.69;20650975;28;98098;-76
2022/03/13 01:57:32;;;;;;;15.00;9.65;;;;;;;20.19;38.34;101519.75;20649204;28;97868;-76
2022/03/13 02:07:35;;;;;;;14.82;9.07;;;;;;;20.17;38.64;101521.63;20649672;28;97708;-76
2022/03/13 02:17:37;;;;;;;13.82;8.77;;;;;;;20.14;38.41;101514.72;20644131;28;99163;-76
2022/03/13 02:27:38;;;;;;;16.88;9.85;;;;;;;20.11;38.50;101515.75;20647972;28;99954;-75
2022/03/13 02:37:42;;;;;;;14.10;9.55;;;;;;;20.08;38.59;101515.06;20647564;28;98993;-76
2022/03/13 02:47:42;;;;;;;13.68;8.85;;;;;;;20.03;38.64;101509.22;20650578;28;98526;-76
2022/03/13 02:57:43;;;;;;;15.05;9.75;;;;;;;19.99;38.52;101496.25;20644309;28;98071;-76
2022/03/13 03:07:43;;;;;;;18.02;9.88;;;;;;;20.02;38.14;101494.38;20648453;27;97594;-78
2022/03/13 03:17:44;;;;;;;14.20;8.55;;;;;;;19.98;38.47;101497.19;20645294;28;97158;-75
2022/03/13 03:27:44;;;;;;;15.40;9.45;;;;;;;19.98;38.70;101480.53;20643975;28;97280;-75
2022/03/13 03:37:50;;;;;;;14.98;9.02;;;;;;;19.96;39.12;101490.31;20642831;27;97100;-76
2022/03/13 03:47:51;;;;;;;14.57;9.15;;;;;;;19.96;38.84;101479.81;20644867;28;98726;-76
2022/03/13 03:57:52;;;;;;;13.88;9.52;;;;;;;19.92;38.89;101465.97;20649130;28;98218;-75
2022/03/13 04:07:53;;;;;;;15.25;9.55;;;;;;;19.95;38.95;101463.16;20647567;28;98884;-75
2022/03/13 04:17:55;;;;;;;15.13;9.18;;;;;;;19.97;39.00;101457.84;20654348;28;100262;-76
2022/03/13 04:27:57;;;;;;;17.17;9.73;;;;;;;19.92;38.74;101471.25;20642927;28;97742;-75
2022/03/13 04:37:57;;;;;;;15.50;9.52;;;;;;;19.88;38.65;101459.19;20650202;28;99976;-75
2022/03/13 04:47:58;;;;;;;14.40;9.35;;;;;;;19.91;38.70;101455.53;20642141;28;101161;-75
2022/03/13 04:57:59;;;;;;;13.07;9.00;;;;;;;19.85;38.67;101477.75;20638167;28;97210;-75
2022/03/13 05:08:05;;;;;;;12.88;8.80;;;;;;;19.87;38.34;101452.22;20647529;28;97612;-75
2022/03/13 05:18:07;;;;;;;13.05;8.63;;;;;;;19.97;38.51;101450.78;20644648;28;98802;-75
2022/03/13 05:28:09;;;;;;;14.68;9.30;;;;;;;20.05;38.33;101460.03;20635628;28;100812;-75
2022/03/13 05:38:10;;;;;;;13.90;9.40;;;;;;;20.13;38.37;101466.56;20647752;28;97397;-75
2022/03/13 05:48:17;;;;;;;12.98;9.30;;;;;;;20.17;37.68;101476.94;20652294;28;96942;-75
2022/03/13 05:58:19;;;;;;;13.57;9.40;;;;;;;20.24;38.37;101483.53;20652014;28;99062;-75
2022/03/13 06:08:19;;;;;;;12.35;8.68;;;;;;;20.28;37.80;101478.00;20651726;27;99000;-75
2022/03/13 06:18:20;;;;;;;16.30;8.40;;;;;;;20.34;38.09;101474.19;20626249;27;97427;-74
2022/03/13 06:28:21;;;;;;;12.85;8.50;;;;;;;20.47;37.90;101487.50;20644879;28;97490;-75
2022/03/13 06:38:22;;;;;;;12.73;8.77;;;;;;;20.56;38.02;101501.91;20653621;28;100358;-74
2022/03/13 06:48:22;;;;;;;11.95;8.50;;;;;;;20.64;38.49;101499.66;20656054;28;97625;-74
2022/03/13 06:58:23;;;;;;;14.75;8.00;;;;;;;20.74;39.18;101510.56;20658937;28;98346;-74
2022/03/13 07:08:23;;;;;;;14.20;7.80;;;;;;;20.82;39.54;101510.94;20643226;28;99122;-74
2022/03/13 07:18:26;;;;;;;13.77;7.82;;;;;;;20.87;39.69;101519.44;20658368;28;99003;-78
2022/03/13 07:28:27;;;;;;;12.57;7.83;;;;;;;20.92;39.63;101508.63;20654649;27;97938;-78
2022/03/13 07:38:27;;;;;;;19.27;7.32;;;;;;;21.01;40.44;101513.38;20654228;27;97806;-76
2022/03/13 07:48:29;;;;;;;14.25;7.90;;;;;;;21.03;40.79;101514.13;20653402;28;100274;-75
2022/03/13 07:58:31;;;;;;;14.57;7.43;;;;;;;21.08;40.96;101522.59;20649778;28;96896;-75
2022/03/13 08:08:32;;;;;;;9.60;6.63;;;;;;;21.12;40.93;101525.91;20652857;28;97692;-76
2022/03/13 08:18:35;;;;;;;11.32;7.38;;;;;;;21.14;40.46;101520.53;20650561;28;97410;-75
2022/03/13 08:28:36;;;;;;;13.18;6.78;;;;;;;21.19;40.27;101511.44;20643950;28;100486;-75
2022/03/13 08:38:37;;;;;;;8.98;6.28;;;;;;;21.25;40.50;101508.44;20649721;28;100767;-76
2022/03/13 08:48:37;;;;;;;9.07;5.95;;;;;;;21.29;40.63;101503.84;20665267;28;97802;-78
2022/03/13 08:58:38;;;;;;;8.27;5.70;;;;;;;21.34;40.57;101506.19;20647105;28;97929;-80
2022/03/13 09:08:38;;;;;;;8.20;5.90;;;;;;;21.33;40.55;101486.06;20662852;28;98918;-78
2022/03/13 09:18:39;;;;;;;7.75;5.25;;;;;;;21.33;40.72;101464.97;20665111;28;101184;-76
2022/03/13 09:28:40;;;;;;;7.00;5.28;;;;;;;21.37;40.71;101471.75;20656036;28;98691;-76
2022/03/13 09:38:41;;;;;;;8.82;5.63;;;;;;;21.27;33.43;101445.94;20665867;28;97542;-79
2022/03/13 09:48:43;;;;;;;8.90;5.70;;;;;;;21.09;30.35;101444.44;20667713;28;98646;-77
2022/03/13 09:58:45;;;;;;;7.85;5.43;;;;;;;20.99;28.21;101432.78;20672782;28;97414;-78
2022/03/13 10:08:45;;;;;;;6.45;4.47;;;;;;;21.11;31.93;101440.75;20677156;27;98184;-77
2022/03/13 10:18:46;;;;;;;8.93;4.50;;;;;;;21.20;35.69;101435.88;20661042;27;98673;-76
2022/03/13 10:28:48;;;;;;;5.82;4.35;;;;;;;21.26;35.87;101440.78;20664365;27;101201;-78
2022/03/13 10:38:49;;;;;;;7.75;4.00;;;;;;;21.35;36.95;101442.00;20672607;27;100076;-77
2022/03/13 10:48:53;;;;;;;5.78;4.00;;;;;;;21.41;37.58;101436.34;20688812;28;97858;-79
2022/03/13 10:58:57;;;;;;;10.98;5.25;;;;;;;21.55;38.40;101419.69;20703228;27;97422;-81
2022/03/13 11:09:01;;;;;;;23.92;7.22;;;;;;;21.60;38.76;101409.75;20712500;28;99947;-81
2022/03/13 11:19:05;;;;;;;16.92;6.32;;;;;;;21.58;34.37;101409.84;20677536;28;97219;-75
2022/03/13 11:29:09;;;;;;;19.33;5.10;;;;;;;21.68;34.41;101386.38;20643652;28;97758;-78
2022/03/13 11:39:10;;;;;;;17.15;5.00;;;;;;;;;;20651326;28;97815;-78
2022/03/13 11:49:37;;;;;;;12.95;5.32;;;;;;;21.85;35.19;101368.63;20651153;28;96649;-78
2022/03/13 11:59:38;;;;;;;12.45;4.80;;;;;;;21.93;35.66;101349.69;20659198;28;101180;-78
2022/03/13 12:09:42;;;;;;;10.70;4.78;;;;;;;22.00;35.79;101341.25;20663091;28;97573;-78
2022/03/13 12:19:45;;;;;;;9.43;4.55;;;;;;;22.09;35.86;101333.69;20650216;28;97123;-78
2022/03/13 12:29:56;;;;;;;8.82;4.55;;;;;;;22.15;35.86;101315.66;20657839;28;98805;-77
2022/03/13 12:40:00;;;;;;;9.15;3.88;;;;;;;22.22;36.14;101306.38;20658900;28;97869;-78
2022/03/13 12:50:01;;;;;;;8.05;4.10;;;;;;;22.29;35.93;101308.59;20674709;28;96896;-78
2022/03/13 13:00:04;;;;;;;7.57;4.32;;;;;;;22.34;36.18;101325.00;20666863;28;97907;-77
2022/03/13 13:10:11;;;;;;;7.78;3.60;;;;;;;22.41;36.15;101314.88;20672788;28;98552;-76
2022/03/13 13:20:22;;;;;;;5.78;3.70;;;;;;;22.44;36.56;101312.03;20669786;28;100009;-77
2022/03/13 13:30:31;;;;;;;9.05;5.35;;;;;;;20.22;15.51;101304.78;20660089;28;97509;-75
2022/03/13 13:40:38;;;;;;;6.40;4.15;;;;;;;21.74;26.49;101312.19;20660994;28;98533;-76
2022/03/13 13:50:40;;;;;;;8.73;3.55;;;;;;;22.05;29.47;101319.84;20656931;27;98264;-77
2022/03/13 14:00:41;;;;;;;7.68;3.85;;;;;;;22.27;31.35;101307.88;20659036;28;97597;-79
2022/03/13 14:10:42;;;;;;;7.07;4.45;;;;;;;22.42;32.74;101311.28;20658168;27;99161;-79
2022/03/13 14:20:42;;;;;;;6.15;3.50;;;;;;;22.51;33.57;101305.41;20638725;28;97895;-76
2022/03/13 14:30:42;;;;;;;6.50;3.42;;;;;;;22.60;33.74;101311.84;20659438;28;98100;-79
2022/03/13 14:40:44;;;;;;;6.00;3.10;;;;;;;22.61;34.08;101303.81;20666369;28;97205;-78
2022/03/13 14:50:46;;;;;;;5.60;2.80;;;;;;;22.64;34.77;101298.31;20661454;27;97753;-77
2022/03/13 15:00:47;;;;;;;6.87;3.30;;;;;;;22.70;34.95;101299.66;20674674;28;97097;-78
2022/03/13 15:10:48;;;;;;;4.60;3.03;;;;;;;22.79;35.36;101295.53;20657255;28;98779;-79
2022/03/13 15:20:48;;;;;;;5.32;2.60;;;;;;;22.77;35.55;101300.09;20677534;27;97138;-78
2022/03/13 15:30:49;;;;;;;5.30;2.85;;;;;;;22.76;35.71;101301.06;20664796;28;101063;-80
2022/03/13 15:40:50;;;;;;;7.22;3.10;;;;;;;22.76;35.94;101298.41;20673687;28;100570;-77
2022/03/13 15:50:51;;;;;;;7.27;2.97;;;;;;;22.64;36.29;101308.88;20653897;28;96966;-80
2022/03/13 16:00:51;;;;;;;9.80;3.00;;;;;;;22.57;36.48;101319.94;20659798;28;101767;-76
2022/03/13 16:10:52;;;;;;;5.90;3.00;;;;;;;22.46;36.44;101321.53;20651257;28;97224;-77
2022/03/13 16:20:55;;;;;;;4.30;3.10;;;;;;;22.36;36.42;101321.28;20655382;28;98011;-77
2022/03/13 16:30:56;;;;;;;4.13;2.88;;;;;;;22.31;36.20;101328.66;20665512;28;98358;-77
2022/03/13 16:41:00;;;;;;;4.97;3.03;;;;;;;22.26;36.53;101333.41;20646425;28;97341;-76
2022/03/13 16:51:01;;;;;;;3.97;2.70;;;;;;;22.17;36.74;101340.13;20650962;28;97702;-76
2022/03/13 17:01:01;;;;;;;5.65;3.75;;;;;;;22.11;37.25;101351.09;20652463;27;98495;-77
2022/03/13 17:11:02;;;;;;;13.73;7.22;;;;;;;22.14;38.04;101365.88;20626666;28;97817;-76
2022/03/13 17:21:03;;;;;;;14.82;9.98;;;;;;;22.16;38.20;101377.19;20627899;28;97808;-77
2022/03/13 17:31:03;;;;;;;16.40;11.40;;;;;;;22.20;37.90;101389.22;20631001;28;97107;-77
2022/03/13 17:41:04;;;;;;;18.60;13.65;;;;;;;22.23;38.45;101392.50;20631373;28;97652;-77
2022/03/13 17:51:04;;;;;;;16.87;13.13;;;;;;;22.25;38.51;101399.47;20645613;27;96939;-77
2022/03/13 18:01:05;;;;;;;16.35;11.80;;;;;;;22.25;38.57;101396.81;20654634;28;97317;-76
2022/03/13 18:11:05;;;;;;;15.07;11.45;;;;;;;22.25;38.57;101417.94;20652799;28;97978;-77
2022/03/13 18:21:06;;;;;;;15.40;11.40;;;;;;;22.22;38.75;101422.47;20655300;27;99623;-77
2022/03/13 18:31:06;;;;;;;14.80;11.10;;;;;;;22.22;38.60;101437.44;20636469;28;98015;-77
2022/03/13 18:41:07;;;;;;;15.50;10.40;;;;;;;22.16;38.83;101441.31;20634707;28;97695;-77
2022/03/13 18:51:08;;;;;;;12.00;9.05;;;;;;;22.12;38.59;101454.81;20634379;28;98692;-76
2022/03/13 19:01:10;;;;;;;11.82;8.95;;;;;;;22.10;38.66;101464.63;20638410;28;97500;-76
2022/03/13 19:11:11;;;;;;;10.87;7.83;;;;;;;22.07;38.95;101471.78;20642135;28;98974;-75
2022/03/13 19:21:12;;;;;;;11.63;7.40;;;;;;;21.99;39.50;101478.50;20641780;28;97599;-76
2022/03/13 19:31:32;;;;;;;10.90;7.57;;;;;;;21.94;38.81;101488.50;20650789;28;98270;-76
2022/03/13 19:41:32;;;;;;;11.23;7.28;;;;;;;21.83;39.67;101502.34;20669437;27;98577;-76
2022/03/13 19:51:33;;;;;;;10.80;6.72;;;;;;;21.76;39.91;101507.16;20653701;28;97947;-76
2022/03/13 20:01:33;;;;;;;13.35;6.75;;;;;;;21.74;40.02;101512.53;20653994;28;96928;-78
2022/03/13 20:11:37;;;;;;;21.27;8.05;;;;;;;21.53;37.34;101513.81;20622367;27;101682;-75
2022/03/13 20:21:38;;;;;;;13.27;7.53;;;;;;;21.51;38.09;101524.44;20646467;27;99174;-75
2022/03/13 20:31:38;;;;;;;10.80;6.63;;;;;;;21.42;38.93;101523.22;20661611;28;97756;-75
2022/03/13 20:41:39;;;;;;;12.48;7.57;;;;;;;21.39;39.37;101530.47;20645923;28;97179;-75
2022/03/13 20:51:40;;;;;;;11.98;7.40;;;;;;;21.36;39.61;101552.59;20647510;28;97099;-76
2022/03/13 21:01:42;;;;;;;10.85;7.10;;;;;;;21.32;39.62;101553.69;20660347;28;98564;-76
2022/03/13 21:11:43;;;;;;;12.00;7.27;;;;;;;21.25;40.10;101560.25;20659739;28;98319;-75
2022/03/13 21:21:45;;;;;;;9.95;6.75;;;;;;;21.20;39.70;101562.31;20662154;28;98496;-76
2022/03/13 21:31:46;;;;;;;10.97;7.17;;;;;;;21.18;39.93;101577.34;20661994;28;97807;-76
2022/03/13 21:41:47;;;;;;;9.27;6.35;;;;;;;21.13;40.25;101576.78;20659012;28;101322;-76
2022/03/13 21:51:49;;;;;;;11.05;6.95;;;;;;;21.00;40.26;101577.50;20675231;28;97490;-76
2022/03/13 22:01:51;;;;;;;9.32;6.65;;;;;;;21.02;40.07;101583.53;20660743;28;97989;-75
2022/03/13 22:11:51;;;;;;;9.52;6.57;;;;;;;20.98;40.10;101596.97;20662269;28;97593;-75
2022/03/13 22:21:52;;;;;;;9.57;6.50;;;;;;;20.99;40.86;101596.88;20651028;27;97985;-75
2022/03/13 22:31:53;;;;;;;9.38;6.20;;;;;;;20.91;40.43;101597.31;20645126;27;102790;-75
2022/03/13 22:41:54;;;;;;;9.13;5.97;;;;;;;20.84;40.48;101603.03;20614919;27;98857;-75
2022/03/13 22:51:56;;;;;;;10.48;6.10;;;;;;;20.82;40.61;101607.53;20624788;27;98544;-75
2022/03/13 23:01:56;;;;;;;10.45;6.40;;;;;;;20.86;40.65;101604.63;20629178;28;97537;-75
2022/03/13 23:11:57;;;;;;;8.87;6.37;;;;;;;20.83;40.56;101614.47;20650837;28;99979;-75
2022/03/13 23:21:58;;;;;;;9.57;6.15;;;;;;;20.80;40.84;101628.69;20642567;28;97085;-75
2022/03/13 23:31:59;;;;;;;9.35;5.72;;;;;;;20.77;40.87;101639.34;20654025;28;97227;-76
2022/03/13 23:42:00;;;;;;;8.85;6.07;;;;;;;20.77;40.80;101637.56;20658546;27;99107;-75
2022/03/13 23:52:00;;;;;;;8.80;5.88;;;;;;;20.68;40.86;101652.97;20616179;27;98469;-75
